Time;durP1;ratioP1;P1;durP2;ratioP2;P2;SDS_P1;SDS_P2;PMS_P1;PMS_P2;Temp;Humidity;BMP_temperature;BMP_pressure;BME280_temperature;BME280_humidity;BME280_pressure;Samples;Min_cycle;Max_cycle;Signal;HPM_P1;HPM_P2
2023/08/26 00:01:58;;;;;;;3.07;2.77;;;;;;;;;;6216990;23;20451;-59
2023/08/26 00:04:26;;;;;;;2.77;2.53;;;;;;;;;;6217034;23;20492;-58
2023/08/26 00:06:53;;;;;;;2.70;2.50;;;;;;;;;;6216909;23;20904;-59
2023/08/26 00:09:20;;;;;;;5.47;2.17;;;;;;;;;;6216883;23;20536;-58
2023/08/26 00:11:47;;;;;;;2.00;1.90;;;;;;;;;;6216883;23;20460;-58
2023/08/26 00:14:14;;;;;;;3.03;2.73;;;;;;;;;;6216729;23;20488;-59
2023/08/26 00:16:41;;;;;;;2.83;2.63;;;;;;;;;;6216315;23;20437;-59
2023/08/26 00:19:07;;;;;;;2.83;2.57;;;;;;;;;;6216853;23;20552;-58
2023/08/26 00:21:37;;;;;;;3.33;2.60;;;;;;;;;;6216848;23;20437;-59
2023/08/26 00:24:04;;;;;;;2.37;2.17;;;;;;;;;;6216587;23;20744;-58
2023/08/26 00:26:31;;;;;;;2.30;2.10;;;;;;;;;;6216774;23;20463;-58
2023/08/26 00:28:58;;;;;;;4.07;2.70;;;;;;;;;;6216614;23;20436;-59
2023/08/26 00:31:25;;;;;;;2.70;2.50;;;;;;;;;;6216709;23;20436;-59
2023/08/26 00:33:53;;;;;;;4.53;2.40;;;;;;;;;;6216667;23;20429;-58
2023/08/26 00:36:20;;;;;;;2.63;2.43;;;;;;;;;;6216575;23;20459;-58
2023/08/26 00:38:48;;;;;;;2.47;1.83;;;;;;;;;;6216636;23;20772;-58
2023/08/26 00:41:15;;;;;;;2.10;1.90;;;;;;;;;;6216557;23;20456;-58
2023/08/26 00:43:42;;;;;;;2.33;2.00;;;;;;;;;;6216509;23;20493;-58
2023/08/26 00:46:09;;;;;;;3.10;2.10;;;;;;;;;;6216539;23;20401;-58
2023/08/26 00:48:36;;;;;;;2.30;2.10;;;;;;;;;;6216452;23;20492;-58
2023/08/26 00:51:03;;;;;;;2.17;1.90;;;;;;;;;;6216043;23;20947;-58
2023/08/26 00:53:31;;;;;;;2.00;1.90;;;;;;;;;;6216530;23;20405;-58
2023/08/26 00:56:01;;;;;;;5.67;2.30;;;;;;;;;;6216500;23;20484;-58
2023/08/26 00:58:28;;;;;;;3.03;2.00;;;;;;;;;;6216288;23;20441;-58
2023/08/26 01:00:55;;;;;;;2.23;2.03;;;;;;;;;;6216393;23;20439;-58
2023/08/26 01:03:23;;;;;;;2.67;2.47;;;;;;;;;;6216453;23;20405;-58
2023/08/26 01:05:50;;;;;;;3.20;2.13;;;;;;;;;;6216389;23;20492;-58
2023/08/26 01:08:17;;;;;;;3.10;2.47;;;;;;;;;;6216437;23;20488;-58
2023/08/26 01:10:50;;;;;;;2.03;1.90;;;;;;;;;;6216312;23;20528;-58
2023/08/26 01:13:22;;;;;;;1.80;1.70;;;;;;;;;;6226170;23;20540;-59
2023/08/26 01:15:50;;;;;;;2.33;2.13;;;;;;;;;;6226320;23;20481;-58
2023/08/26 01:18:18;;;;;;;17.97;3.50;;;;;;;;;;6216185;23;20464;-58
2023/08/26 01:20:45;;;;;;;2.00;1.90;;;;;;;;;;6215918;23;20951;-58
2023/08/26 01:23:14;;;;;;;2.30;2.10;;;;;;;;;;6216121;23;20444;-59
2023/08/26 01:25:42;;;;;;;2.20;2.10;;;;;;;;;;6216208;23;20968;-58
2023/08/26 01:28:09;;;;;;;2.40;2.17;;;;;;;;;;6216010;23;20433;-59
2023/08/26 01:30:36;;;;;;;4.80;2.70;;;;;;;;;;6215787;23;20528;-59
2023/08/26 01:33:06;;;;;;;2.30;2.20;;;;;;;;;;6216170;23;20483;-59
2023/08/26 01:35:34;;;;;;;3.17;2.30;;;;;;;;;;6216072;23;20445;-58
2023/08/26 01:38:02;;;;;;;2.40;2.20;;;;;;;;;;6215748;23;20443;-58
2023/08/26 01:40:29;;;;;;;3.03;2.40;;;;;;;;;;6216071;23;20405;-58
2023/08/26 01:42:59;;;;;;;2.70;2.03;;;;;;;;;;6216047;23;20484;-59
2023/08/26 01:45:26;;;;;;;2.67;2.33;;;;;;;;;;6215847;23;20495;-58
2023/08/26 01:47:53;;;;;;;2.60;2.40;;;;;;;;;;6216062;23;20435;-58
2023/08/26 01:50:20;;;;;;;4.13;3.20;;;;;;;;;;6215550;23;20831;-58
2023/08/26 01:52:47;;;;;;;2.53;2.13;;;;;;;;;;6216030;23;20492;-59
2023/08/26 01:55:14;;;;;;;2.87;2.53;;;;;;;;;;6216095;23;20773;-58
2023/08/26 01:57:41;;;;;;;3.20;2.70;;;;;;;;;;6216109;23;20939;-58
2023/08/26 02:00:10;;;;;;;2.67;2.47;;;;;;;;;;6216103;23;20435;-58
2023/08/26 02:02:37;;;;;;;2.80;2.60;;;;;;;;;;6215935;23;20764;-58
2023/08/26 02:05:04;;;;;;;2.70;2.50;;;;;;;;;;6215938;23;20480;-59
2023/08/26 02:07:30;;;;;;;2.93;2.73;;;;;;;;;;6215952;23;20467;-59
2023/08/26 02:09:57;;;;;;;6.93;3.43;;;;;;;;;;6215890;23;20547;-58
2023/08/26 02:12:24;;;;;;;5.73;3.07;;;;;;;;;;6215962;23;20496;-59
2023/08/26 02:14:51;;;;;;;4.30;3.07;;;;;;;;;;6215982;23;20437;-58
2023/08/26 02:17:19;;;;;;;3.53;3.23;;;;;;;;;;6215794;23;20433;-59
2023/08/26 02:19:46;;;;;;;3.73;3.47;;;;;;;;;;6215416;23;20884;-58
2023/08/26 02:22:13;;;;;;;4.30;4.00;;;;;;;;;;6215856;23;20401;-58
2023/08/26 02:24:40;;;;;;;3.70;3.23;;;;;;;;;;6215857;23;20401;-58
2023/08/26 02:27:07;;;;;;;3.50;3.27;;;;;;;;;;6215980;23;20781;-58
2023/08/26 02:29:34;;;;;;;4.40;3.40;;;;;;;;;;6215810;23;20479;-58
2023/08/26 02:32:01;;;;;;;4.10;3.73;;;;;;;;;;6215508;23;20493;-58
2023/08/26 02:34:30;;;;;;;3.30;3.10;;;;;;;;;;6215746;23;20459;-58
2023/08/26 02:36:56;;;;;;;4.40;4.00;;;;;;;;;;6215685;23;20733;-58
2023/08/26 02:39:23;;;;;;;3.10;2.90;;;;;;;;;;6216400;23;20584;-58
2023/08/26 02:41:50;;;;;;;3.83;3.53;;;;;;;;;;6217802;23;20432;-58
2023/08/26 02:44:17;;;;;;;3.73;3.43;;;;;;;;;;6217802;23;20432;-58
2023/08/26 02:46:44;;;;;;;3.60;3.30;;;;;;;;;;6217709;23;20492;-58
2023/08/26 02:49:11;;;;;;;5.00;3.27;;;;;;;;;;6217567;23;20435;-59
2023/08/26 02:51:39;;;;;;;3.93;3.57;;;;;;;;;;6217216;23;20535;-58
2023/08/26 02:54:06;;;;;;;6.40;3.70;;;;;;;;;;6217561;23;20487;-58
2023/08/26 02:56:33;;;;;;;3.97;3.67;;;;;;;;;;6217295;23;20444;-58
2023/08/26 02:59:00;;;;;;;3.70;3.50;;;;;;;;;;6217602;23;20492;-58
2023/08/26 03:01:30;;;;;;;4.40;4.00;;;;;;;;;;6217612;23;20447;-58
2023/08/26 03:03:57;;;;;;;3.77;3.47;;;;;;;;;;6217236;23;20786;-58
2023/08/26 03:06:24;;;;;;;4.20;3.90;;;;;;;;;;6217191;23;20955;-58
2023/08/26 03:08:52;;;;;;;3.93;3.70;;;;;;;;;;6217508;23;20405;-58
2023/08/26 03:11:19;;;;;;;4.50;4.13;;;;;;;;;;6217295;23;20516;-58
2023/08/26 03:13:46;;;;;;;4.10;3.80;;;;;;;;;;6217387;23;20491;-58
2023/08/26 03:16:13;;;;;;;4.20;3.80;;;;;;;;;;6217482;23;20444;-58
2023/08/26 03:18:40;;;;;;;4.27;3.87;;;;;;;;;;6217395;23;20488;-58
2023/08/26 03:21:07;;;;;;;4.83;4.37;;;;;;;;;;6217366;23;20405;-58
2023/08/26 03:23:34;;;;;;;4.23;3.60;;;;;;;;;;6216964;23;20888;-59
2023/08/26 03:26:03;;;;;;;4.27;3.60;;;;;;;;;;6217397;23;20409;-59
2023/08/26 03:28:30;;;;;;;5.63;4.03;;;;;;;;;;6217454;23;20529;-59
2023/08/26 03:31:02;;;;;;;4.37;3.87;;;;;;;;;;6217608;23;20463;-59
2023/08/26 03:33:29;;;;;;;4.23;3.80;;;;;;;;;;6227141;23;20393;-59
2023/08/26 03:35:56;;;;;;;4.00;3.70;;;;;;;;;;6217309;23;20492;-58
2023/08/26 03:38:23;;;;;;;4.53;4.10;;;;;;;;;;6217299;23;20786;-58
2023/08/26 03:40:49;;;;;;;3.37;3.17;;;;;;;;;;6217287;23;20496;-58
2023/08/26 03:43:18;;;;;;;4.90;3.33;;;;;;;;;;6217194;23;20413;-58
2023/08/26 03:45:45;;;;;;;4.63;4.23;;;;;;;;;;6217089;23;20492;-58
2023/08/26 03:48:13;;;;;;;6.30;4.17;;;;;;;;;;6217090;23;20409;-58
2023/08/26 03:50:39;;;;;;;4.10;3.67;;;;;;;;;;6216518;23;20448;-58
2023/08/26 03:53:06;;;;;;;4.47;3.43;;;;;;;;;;6217114;23;20433;-58
2023/08/26 03:55:36;;;;;;;5.33;4.00;;;;;;;;;;6217114;23;20463;-58
2023/08/26 03:58:03;;;;;;;4.20;3.90;;;;;;;;;;6216924;23;20405;-58
2023/08/26 04:00:31;;;;;;;5.53;4.80;;;;;;;;;;6217014;23;20436;-59
2023/08/26 04:02:59;;;;;;;3.77;3.57;;;;;;;;;;6216799;23;20405;-58
2023/08/26 04:05:26;;;;;;;6.00;4.10;;;;;;;;;;6217094;23;20433;-58
2023/08/26 04:07:53;;;;;;;5.27;4.20;;;;;;;;;;6216576;23;21003;-58
2023/08/26 04:10:19;;;;;;;3.47;3.27;;;;;;;;;;6216902;23;20465;-59
2023/08/26 04:12:47;;;;;;;3.10;2.87;;;;;;;;;;6216842;23;20474;-58
2023/08/26 04:15:14;;;;;;;4.20;3.80;;;;;;;;;;6216884;23;20440;-58
2023/08/26 04:17:43;;;;;;;4.57;4.17;;;;;;;;;;6216880;23;20440;-58
2023/08/26 04:20:11;;;;;;;4.30;3.90;;;;;;;;;;6216759;23;20436;-58
2023/08/26 04:22:38;;;;;;;5.40;3.50;;;;;;;;;;6216709;23;20409;-58
2023/08/26 04:25:06;;;;;;;4.23;3.57;;;;;;;;;;6216790;23;20440;-58
2023/08/26 04:27:34;;;;;;;3.73;3.00;;;;;;;;;;6216689;23;20484;-58
2023/08/26 04:30:01;;;;;;;4.93;3.73;;;;;;;;;;6216641;23;20429;-58
2023/08/26 04:32:28;;;;;;;6.33;4.23;;;;;;;;;;6216635;23;20440;-58
2023/08/26 04:34:56;;;;;;;4.77;4.37;;;;;;;;;;6216690;23;20492;-59
2023/08/26 04:37:23;;;;;;;3.53;3.33;;;;;;;;;;6216595;23;20437;-59
2023/08/26 04:39:50;;;;;;;5.47;3.23;;;;;;;;;;6216633;23;20444;-58
2023/08/26 04:42:18;;;;;;;3.90;3.50;;;;;;;;;;6216732;23;20923;-58
2023/08/26 04:44:46;;;;;;;3.53;3.33;;;;;;;;;;6216564;23;20455;-58
2023/08/26 04:47:13;;;;;;;5.03;3.63;;;;;;;;;;6216443;23;20416;-58
2023/08/26 04:49:41;;;;;;;7.87;4.00;;;;;;;;;;6215899;23;21795;-58
2023/08/26 04:52:10;;;;;;;5.63;3.70;;;;;;;;;;6226383;23;20440;-58
2023/08/26 04:54:37;;;;;;;4.13;3.17;;;;;;;;;;6216308;23;20451;-58
2023/08/26 04:57:04;;;;;;;3.20;3.00;;;;;;;;;;6216482;23;20440;-58
2023/08/26 04:59:31;;;;;;;4.70;3.70;;;;;;;;;;6216103;23;20889;-58
2023/08/26 05:01:57;;;;;;;5.13;4.53;;;;;;;;;;6216150;23;20435;-59
2023/08/26 05:04:24;;;;;;;3.83;3.53;;;;;;;;;;6216407;23;20484;-58
2023/08/26 05:06:53;;;;;;;3.93;3.57;;;;;;;;;;6216351;23;20441;-58
2023/08/26 05:09:21;;;;;;;4.00;3.70;;;;;;;;;;6216251;23;20401;-58
2023/08/26 05:11:48;;;;;;;4.20;3.90;;;;;;;;;;6216127;23;20474;-58
2023/08/26 05:14:15;;;;;;;4.23;3.90;;;;;;;;;;6216295;23;20444;-58
2023/08/26 05:16:42;;;;;;;3.83;3.53;;;;;;;;;;6216283;23;20436;-58
2023/08/26 05:19:09;;;;;;;4.47;3.43;;;;;;;;;;6216254;23;20455;-59
2023/08/26 05:21:36;;;;;;;4.23;3.93;;;;;;;;;;6216341;23;20443;-58
2023/08/26 05:24:03;;;;;;;4.03;3.73;;;;;;;;;;6215843;23;20729;-58
2023/08/26 05:26:31;;;;;;;6.60;4.33;;;;;;;;;;6216176;23;20919;-58
2023/08/26 05:28:58;;;;;;;3.57;3.33;;;;;;;;;;6216120;23;20455;-59
2023/08/26 05:31:26;;;;;;;4.83;4.03;;;;;;;;;;6216063;23;20524;-58
2023/08/26 05:33:53;;;;;;;6.43;4.00;;;;;;;;;;6216065;23;20413;-58
2023/08/26 05:36:21;;;;;;;10.37;4.20;;;;;;;;;;6216109;23;20488;-58
2023/08/26 05:38:48;;;;;;;7.33;4.10;;;;;;;;;;6216039;23;20492;-58
2023/08/26 05:41:15;;;;;;;3.73;3.43;;;;;;;;;;6216141;23;20800;-58
2023/08/26 05:43:43;;;;;;;4.20;3.90;;;;;;;;;;6215983;23;20432;-59
2023/08/26 05:46:10;;;;;;;5.40;3.60;;;;;;;;;;6216074;23;20440;-59
2023/08/26 05:48:37;;;;;;;4.40;4.00;;;;;;;;;;6216108;23;20491;-58
2023/08/26 05:51:04;;;;;;;5.40;3.77;;;;;;;;;;6215500;23;20476;-58
2023/08/26 05:53:31;;;;;;;4.37;3.97;;;;;;;;;;6215566;23;20997;-59
2023/08/26 05:55:58;;;;;;;4.13;3.70;;;;;;;;;;6216097;23;20437;-58
2023/08/26 05:58:25;;;;;;;5.53;3.87;;;;;;;;;;6215944;23;20436;-59
2023/08/26 06:00:53;;;;;;;4.53;4.20;;;;;;;;;;6215916;23;20484;-59
2023/08/26 06:03:20;;;;;;;4.37;3.93;;;;;;;;;;6215854;23;20960;-58
2023/08/26 06:05:48;;;;;;;5.23;4.03;;;;;;;;;;6215962;23;20444;-59
2023/08/26 06:08:15;;;;;;;4.60;4.30;;;;;;;;;;6215945;23;20491;-58
2023/08/26 06:10:41;;;;;;;4.00;3.57;;;;;;;;;;6215742;23;20455;-59
2023/08/26 06:13:08;;;;;;;5.47;5.00;;;;;;;;;;6215729;23;20492;-58
2023/08/26 06:15:35;;;;;;;5.97;4.73;;;;;;;;;;6217513;23;20487;-58
2023/08/26 06:18:04;;;;;;;7.30;4.83;;;;;;;;;;6217968;23;20460;-58
2023/08/26 06:20:30;;;;;;;4.70;4.30;;;;;;;;;;6217928;23;20491;-58
2023/08/26 06:22:59;;;;;;;10.73;4.70;;;;;;;;;;6217948;23;20781;-58
2023/08/26 06:25:26;;;;;;;4.00;3.70;;;;;;;;;;6217908;23;20462;-59
2023/08/26 06:27:52;;;;;;;4.00;3.60;;;;;;;;;;6217923;23;20480;-58
2023/08/26 06:30:21;;;;;;;3.53;3.33;;;;;;;;;;6217834;23;20436;-58
2023/08/26 06:32:48;;;;;;;5.10;4.10;;;;;;;;;;6217671;23;20412;-58
2023/08/26 06:35:16;;;;;;;4.00;3.70;;;;;;;;;;6217763;23;20443;-58
2023/08/26 06:37:43;;;;;;;4.43;4.07;;;;;;;;;;6217775;23;20496;-59
2023/08/26 06:40:10;;;;;;;3.90;3.60;;;;;;;;;;6217739;23;20488;-59
2023/08/26 06:42:37;;;;;;;6.47;4.13;;;;;;;;;;6217731;23;20495;-59
2023/08/26 06:45:05;;;;;;;4.33;4.03;;;;;;;;;;6217801;23;20447;-58
2023/08/26 06:47:31;;;;;;;4.70;4.30;;;;;;;;;;6217707;23;20488;-58
2023/08/26 06:49:59;;;;;;;4.30;4.00;;;;;;;;;;6217354;23;20432;-58
2023/08/26 06:52:29;;;;;;;4.67;4.27;;;;;;;;;;6217457;23;20754;-58
2023/08/26 06:54:56;;;;;;;4.10;3.80;;;;;;;;;;6227384;23;20397;-58
2023/08/26 06:57:23;;;;;;;4.33;3.93;;;;;;;;;;6217587;23;20938;-58
2023/08/26 06:59:50;;;;;;;5.77;4.70;;;;;;;;;;6217583;23;20488;-59
2023/08/26 07:02:17;;;;;;;4.83;4.53;;;;;;;;;;6217614;23;20416;-59
2023/08/26 07:04:44;;;;;;;7.87;4.80;;;;;;;;;;6217372;23;20492;-58
2023/08/26 07:07:13;;;;;;;4.53;4.13;;;;;;;;;;6217396;23;20432;-58
2023/08/26 07:09:41;;;;;;;5.17;4.87;;;;;;;;;;6217387;23;20404;-58
2023/08/26 07:12:08;;;;;;;5.87;5.27;;;;;;;;;;6217134;23;20473;-58
2023/08/26 07:14:35;;;;;;;5.57;4.37;;;;;;;;;;6217444;23;20447;-58
2023/08/26 07:17:02;;;;;;;5.23;4.60;;;;;;;;;;6217078;23;20437;-58
2023/08/26 07:19:29;;;;;;;5.40;4.30;;;;;;;;;;6217502;23;20440;-58
2023/08/26 07:21:56;;;;;;;4.50;4.10;;;;;;;;;;6217392;23;20437;-59
2023/08/26 07:24:23;;;;;;;4.77;4.30;;;;;;;;;;6217307;23;20828;-59
2023/08/26 07:26:51;;;;;;;4.80;4.47;;;;;;;;;;6217165;23;20492;-58
2023/08/26 07:29:18;;;;;;;6.80;5.27;;;;;;;;;;6217291;23;20433;-58
2023/08/26 07:31:45;;;;;;;5.07;4.67;;;;;;;;;;6216901;23;20998;-58
2023/08/26 07:34:11;;;;;;;4.70;4.30;;;;;;;;;;6217185;23;20433;-58
2023/08/26 07:36:38;;;;;;;6.33;4.60;;;;;;;;;;6217329;23;20432;-59
2023/08/26 07:39:05;;;;;;;5.57;4.90;;;;;;;;;;6217146;23;20428;-58
2023/08/26 07:41:33;;;;;;;6.73;5.50;;;;;;;;;;6216818;23;20916;-58
2023/08/26 07:44:03;;;;;;;3.77;3.57;;;;;;;;;;6217039;23;20488;-58
2023/08/26 07:46:29;;;;;;;5.10;4.60;;;;;;;;;;6217235;23;20405;-59
2023/08/26 07:48:57;;;;;;;4.23;4.03;;;;;;;;;;6217007;23;20773;-58
2023/08/26 07:51:24;;;;;;;5.40;4.90;;;;;;;;;;6216346;23;20995;-58
2023/08/26 07:53:51;;;;;;;4.50;4.20;;;;;;;;;;6217014;23;20491;-58
2023/08/26 07:56:20;;;;;;;4.50;4.10;;;;;;;;;;6217122;23;20497;-58
2023/08/26 07:58:47;;;;;;;8.03;4.80;;;;;;;;;;6216914;23;20436;-58
2023/08/26 08:01:17;;;;;;;5.77;5.13;;;;;;;;;;6217031;23;20447;-59
2023/08/26 08:03:44;;;;;;;6.63;4.83;;;;;;;;;;6226762;23;20759;-58
2023/08/26 08:06:10;;;;;;;6.97;4.70;;;;;;;;;;6217002;23;20497;-59
2023/08/26 08:08:37;;;;;;;3.87;3.57;;;;;;;;;;6216844;23;20436;-58
2023/08/26 08:11:04;;;;;;;4.43;4.13;;;;;;;;;;6216847;23;20802;-58
2023/08/26 08:13:32;;;;;;;5.23;4.83;;;;;;;;;;6216881;23;20437;-58
2023/08/26 08:15:59;;;;;;;4.10;3.90;;;;;;;;;;6216776;23;20520;-58
2023/08/26 08:18:27;;;;;;;5.27;4.87;;;;;;;;;;6216767;23;20405;-59
2023/08/26 08:20:54;;;;;;;9.60;4.57;;;;;;;;;;6216389;23;20908;-58
2023/08/26 08:23:21;;;;;;;4.83;4.30;;;;;;;;;;6216662;23;20408;-58
2023/08/26 08:25:48;;;;;;;5.40;4.90;;;;;;;;;;6216540;23;20492;-58
2023/08/26 08:28:15;;;;;;;6.43;4.77;;;;;;;;;;6216637;23;20796;-59
2023/08/26 08:30:42;;;;;;;7.10;5.03;;;;;;;;;;6216669;23;20492;-59
2023/08/26 08:33:09;;;;;;;6.00;4.20;;;;;;;;;;6216475;23;20524;-59
2023/08/26 08:35:37;;;;;;;7.77;4.80;;;;;;;;;;6216757;23;20488;-58
2023/08/26 08:38:04;;;;;;;9.10;4.30;;;;;;;;;;6216045;23;20412;-59
2023/08/26 08:40:31;;;;;;;5.77;4.73;;;;;;;;;;6216609;23;20439;-58
2023/08/26 08:42:59;;;;;;;4.00;3.70;;;;;;;;;;6216550;23;20473;-59
2023/08/26 08:45:26;;;;;;;6.13;4.50;;;;;;;;;;6216409;23;20405;-59
2023/08/26 08:47:55;;;;;;;4.63;4.23;;;;;;;;;;6216472;23;20492;-59
2023/08/26 08:50:22;;;;;;;5.87;4.97;;;;;;;;;;6215957;23;20487;-58
2023/08/26 08:52:52;;;;;;;5.10;4.70;;;;;;;;;;6215966;23;20523;-59
2023/08/26 08:55:20;;;;;;;4.63;4.23;;;;;;;;;;6216371;23;20440;-59
2023/08/26 08:57:49;;;;;;;6.77;4.30;;;;;;;;;;6216401;23;20478;-60
2023/08/26 09:00:18;;;;;;;6.93;4.40;;;;;;;;;;6216189;23;20768;-58
2023/08/26 09:02:46;;;;;;;4.50;4.10;;;;;;;;;;6216206;23;20429;-59
2023/08/26 09:05:14;;;;;;;7.57;3.90;;;;;;;;;;6216230;23;20407;-58
2023/08/26 09:07:41;;;;;;;4.27;3.87;;;;;;;;;;6216293;23;20405;-58
2023/08/26 09:10:11;;;;;;;9.73;4.87;;;;;;;;;;6216251;23;20452;-59
2023/08/26 09:12:38;;;;;;;4.53;4.13;;;;;;;;;;6216009;23;20443;-59
2023/08/26 09:15:06;;;;;;;6.60;4.47;;;;;;;;;;6216273;23;20496;-58
2023/08/26 09:17:32;;;;;;;5.57;3.70;;;;;;;;;;6216120;23;20484;-58
2023/08/26 09:20:00;;;;;;;4.27;3.93;;;;;;;;;;6216248;23;20762;-58
2023/08/26 09:22:27;;;;;;;5.77;4.30;;;;;;;;;;6216164;23;20491;-58
2023/08/26 09:24:55;;;;;;;5.80;5.10;;;;;;;;;;6216014;23;20480;-59
2023/08/26 09:27:23;;;;;;;6.80;4.67;;;;;;;;;;6216092;23;20492;-58
2023/08/26 09:29:50;;;;;;;4.40;4.00;;;;;;;;;;6215729;23;20488;-58
2023/08/26 09:32:32;;;;;;;4.53;4.13;;;;;;;;;;6215976;23;20532;-58
2023/08/26 09:35:09;;;;;;;8.63;4.40;;;;;;;;;;6225915;23;20425;-58
2023/08/26 09:37:36;;;;;;;7.93;3.97;;;;;;;;;;6226038;23;20416;-58
2023/08/26 09:40:02;;;;;;;4.30;3.90;;;;;;;;;;6215734;23;20889;-58
2023/08/26 09:42:31;;;;;;;3.33;3.13;;;;;;;;;;6215743;23;20964;-58
2023/08/26 09:44:58;;;;;;;3.67;3.37;;;;;;;;;;6215861;23;20401;-58
2023/08/26 09:47:28;;;;;;;4.30;3.40;;;;;;;;;;6215946;23;20429;-59
2023/08/26 09:49:55;;;;;;;3.83;3.50;;;;;;;;;;6215469;23;20452;-59
2023/08/26 09:52:22;;;;;;;5.50;3.50;;;;;;;;;;6215898;23;20515;-58
2023/08/26 09:54:49;;;;;;;4.43;3.70;;;;;;;;;;6216007;23;20493;-58
2023/08/26 09:57:16;;;;;;;8.37;4.20;;;;;;;;;;6215933;23;20416;-58
2023/08/26 09:59:44;;;;;;;3.73;2.93;;;;;;;;;;6215935;23;20778;-58
2023/08/26 10:02:22;;;;;;;3.30;3.10;;;;;;;;;;6215318;23;20906;-58
2023/08/26 10:04:49;;;;;;;2.73;2.53;;;;;;;;;;6225709;23;20392;-58
2023/08/26 10:07:16;;;;;;;2.90;2.60;;;;;;;;;;6215816;23;20441;-58
2023/08/26 10:09:46;;;;;;;8.13;3.70;;;;;;;;;;6215884;23;20412;-58
2023/08/26 10:12:17;;;;;;;3.37;3.00;;;;;;;;;;6225616;23;20745;-58
2023/08/26 10:14:48;;;;;;;3.80;3.60;;;;;;;;;;6225727;23;20397;-59
2023/08/26 10:17:16;;;;;;;3.80;3.60;;;;;;;;;;6225285;23;20480;-59
2023/08/26 10:19:43;;;;;;;6.33;5.57;;;;;;;;;;6215781;23;20777;-58
2023/08/26 10:22:11;;;;;;;5.63;5.13;;;;;;;;;;6215717;23;20500;-58
2023/08/26 10:24:38;;;;;;;6.13;5.63;;;;;;;;;;6215564;23;20405;-58
2023/08/26 10:27:05;;;;;;;8.23;7.03;;;;;;;;;;6215669;23;20409;-59
2023/08/26 10:29:33;;;;;;;7.47;6.77;;;;;;;;;;6215486;23;20409;-59
2023/08/26 10:32:15;;;;;;;7.90;7.23;;;;;;;;;;6215451;23;20511;-58
2023/08/26 10:34:52;;;;;;;8.57;7.70;;;;;;;;;;6225290;23;20863;-58
2023/08/26 10:37:20;;;;;;;9.30;7.90;;;;;;;;;;6225513;23;20472;-59
2023/08/26 10:39:48;;;;;;;9.73;6.93;;;;;;;;;;6215695;23;20496;-59
2023/08/26 10:42:16;;;;;;;7.80;6.60;;;;;;;;;;6215541;23;20445;-59
2023/08/26 10:44:43;;;;;;;6.67;6.07;;;;;;;;;;6215451;23;20651;-59
2023/08/26 10:47:12;;;;;;;7.70;6.77;;;;;;;;;;6215684;23;20405;-58
2023/08/26 10:49:39;;;;;;;7.30;6.60;;;;;;;;;;6215032;23;20433;-59
2023/08/26 10:52:10;;;;;;;12.07;8.00;;;;;;;;;;6225369;23;20812;-59
2023/08/26 10:54:37;;;;;;;7.63;7.03;;;;;;;;;;6215604;23;20415;-59
2023/08/26 10:57:05;;;;;;;12.00;7.40;;;;;;;;;;6215673;23;20463;-58
2023/08/26 10:59:35;;;;;;;7.20;6.50;;;;;;;;;;6215596;23;20480;-59
2023/08/26 11:02:03;;;;;;;7.37;6.53;;;;;;;;;;6217466;23;20437;-58
2023/08/26 11:04:31;;;;;;;7.17;6.47;;;;;;;;;;6217422;23;20780;-58
2023/08/26 11:06:58;;;;;;;8.13;7.30;;;;;;;;;;6217292;23;20857;-59
2023/08/26 11:09:26;;;;;;;7.30;6.60;;;;;;;;;;6217471;23;20488;-59
2023/08/26 11:11:53;;;;;;;7.40;6.80;;;;;;;;;;6217315;23;20411;-59
2023/08/26 11:14:30;;;;;;;6.93;6.23;;;;;;;;;;6217404;23;20488;-59
2023/08/26 11:16:57;;;;;;;7.50;6.80;;;;;;;;;;6227226;23;20393;-58
2023/08/26 11:19:24;;;;;;;6.90;5.20;;;;;;;;;;6217423;23;20496;-59
2023/08/26 11:21:53;;;;;;;5.83;5.30;;;;;;;;;;6217392;23;20440;-59
2023/08/26 11:24:29;;;;;;;5.73;5.30;;;;;;;;;;6217224;23;20465;-59
2023/08/26 11:26:56;;;;;;;5.73;5.17;;;;;;;;;;6227138;23;20473;-59
2023/08/26 11:29:24;;;;;;;5.93;5.40;;;;;;;;;;6216949;23;20432;-60
2023/08/26 11:31:51;;;;;;;6.47;5.87;;;;;;;;;;6226725;23;20492;-59
2023/08/26 11:34:22;;;;;;;5.20;4.80;;;;;;;;;;6217178;23;20441;-59
2023/08/26 11:36:51;;;;;;;6.03;5.00;;;;;;;;;;6217027;23;20409;-59
2023/08/26 11:39:20;;;;;;;6.77;4.77;;;;;;;;;;6217302;23;20408;-59
2023/08/26 11:41:46;;;;;;;4.97;4.50;;;;;;;;;;6216652;23;20401;-59
2023/08/26 11:44:15;;;;;;;5.13;4.67;;;;;;;;;;6217043;23;20500;-59
2023/08/26 11:46:42;;;;;;;4.57;4.03;;;;;;;;;;6217077;23;20911;-59
2023/08/26 11:49:11;;;;;;;5.47;4.40;;;;;;;;;;6217159;23;20429;-59
2023/08/26 11:51:40;;;;;;;3.83;3.40;;;;;;;;;;6216468;23;20459;-59
2023/08/26 11:54:07;;;;;;;5.53;4.13;;;;;;;;;;6216708;23;20519;-59
2023/08/26 11:56:35;;;;;;;4.60;3.70;;;;;;;;;;6217023;23;20432;-59
2023/08/26 11:59:02;;;;;;;4.60;4.20;;;;;;;;;;6216910;23;20488;-60
2023/08/26 12:01:29;;;;;;;5.23;3.83;;;;;;;;;;6217009;23;20405;-59
2023/08/26 12:03:56;;;;;;;4.63;3.80;;;;;;;;;;6216973;23;20444;-59
2023/08/26 12:06:23;;;;;;;3.00;2.80;;;;;;;;;;6216916;23;20460;-59
2023/08/26 12:08:53;;;;;;;4.90;3.17;;;;;;;;;;6216894;23;20435;-59
2023/08/26 12:11:20;;;;;;;3.00;2.70;;;;;;;;;;6216827;23;20401;-59
2023/08/26 12:13:49;;;;;;;3.30;3.07;;;;;;;;;;6216588;23;20987;-59
2023/08/26 12:16:17;;;;;;;4.30;3.60;;;;;;;;;;6216633;23;20405;-59
2023/08/26 12:18:45;;;;;;;3.13;2.83;;;;;;;;;;6216675;23;20405;-59
2023/08/26 12:21:12;;;;;;;2.60;2.40;;;;;;;;;;6216737;23;20411;-59
2023/08/26 12:23:39;;;;;;;3.97;2.53;;;;;;;;;;6216723;23;20437;-59
2023/08/26 12:26:13;;;;;;;3.60;2.37;;;;;;;;;;6217164;23;20401;-59
2023/08/26 12:28:40;;;;;;;3.10;2.90;;;;;;;;;;6216543;23;20423;-59
2023/08/26 12:31:09;;;;;;;5.83;2.80;;;;;;;;;;6216544;23;20401;-59
2023/08/26 12:33:36;;;;;;;2.90;2.57;;;;;;;;;;6216375;23;20480;-59
2023/08/26 12:36:03;;;;;;;2.30;2.20;;;;;;;;;;6216664;23;20748;-60
2023/08/26 12:38:30;;;;;;;6.23;3.27;;;;;;;;;;6216746;23;20732;-59
2023/08/26 12:40:58;;;;;;;3.97;3.13;;;;;;;;;;6216656;23;20480;-59
2023/08/26 12:43:25;;;;;;;2.70;2.50;;;;;;;;;;6216546;23;20443;-59
2023/08/26 12:45:52;;;;;;;2.50;2.30;;;;;;;;;;6216493;23;20428;-59
2023/08/26 12:48:20;;;;;;;3.17;2.60;;;;;;;;;;6216544;23;20772;-59
2023/08/26 12:50:47;;;;;;;5.07;2.80;;;;;;;;;;6216302;23;20425;-59
2023/08/26 12:53:14;;;;;;;4.70;2.90;;;;;;;;;;6216395;23;20857;-59
2023/08/26 12:55:41;;;;;;;4.90;2.80;;;;;;;;;;6216545;23;20437;-59
2023/08/26 12:58:08;;;;;;;2.77;2.57;;;;;;;;;;6216475;23;20759;-59
2023/08/26 13:00:35;;;;;;;3.30;2.97;;;;;;;;;;6216476;23;20496;-59
2023/08/26 13:03:03;;;;;;;2.70;2.40;;;;;;;;;;6216441;23;20503;-59
2023/08/26 13:05:31;;;;;;;3.50;2.63;;;;;;;;;;6216347;23;20405;-59
2023/08/26 13:07:58;;;;;;;2.53;2.10;;;;;;;;;;6216543;23;20401;-59
2023/08/26 13:10:25;;;;;;;2.43;2.23;;;;;;;;;;6216272;23;20424;-59
2023/08/26 13:12:52;;;;;;;3.90;2.30;;;;;;;;;;6216211;23;20515;-59
2023/08/26 13:15:19;;;;;;;2.50;2.30;;;;;;;;;;6216010;23;20934;-59
2023/08/26 13:17:46;;;;;;;3.60;2.33;;;;;;;;;;6216186;23;20404;-59
2023/08/26 13:20:13;;;;;;;2.53;2.20;;;;;;;;;;6216274;23;20445;-59
2023/08/26 13:22:41;;;;;;;2.53;2.20;;;;;;;;;;6215997;23;20412;-59
2023/08/26 13:25:09;;;;;;;4.03;2.67;;;;;;;;;;6216110;23;20409;-59
2023/08/26 13:27:36;;;;;;;2.50;2.20;;;;;;;;;;6215816;23;20409;-59
2023/08/26 13:30:03;;;;;;;2.67;2.47;;;;;;;;;;6216162;23;20413;-59
2023/08/26 13:32:30;;;;;;;5.90;2.50;;;;;;;;;;6216079;23;20448;-59
2023/08/26 13:34:57;;;;;;;2.07;1.87;;;;;;;;;;6215922;23;20543;-59
2023/08/26 13:37:24;;;;;;;2.27;2.17;;;;;;;;;;6216055;23;20463;-59
2023/08/26 13:39:52;;;;;;;2.20;2.00;;;;;;;;;;6216115;23;20405;-59
2023/08/26 13:42:19;;;;;;;3.03;2.40;;;;;;;;;;6215943;23;20496;-59
2023/08/26 13:44:46;;;;;;;2.50;2.30;;;;;;;;;;6216042;23;20463;-59
2023/08/26 13:47:14;;;;;;;2.27;2.07;;;;;;;;;;6216296;23;20409;-59
2023/08/26 13:49:40;;;;;;;2.07;1.87;;;;;;;;;;6215672;23;20429;-59
2023/08/26 13:52:07;;;;;;;4.63;2.13;;;;;;;;;;6225967;23;20484;-59
2023/08/26 13:54:35;;;;;;;2.83;1.93;;;;;;;;;;6215894;23;20520;-59
2023/08/26 13:57:03;;;;;;;2.83;2.47;;;;;;;;;;6216041;23;20412;-59
2023/08/26 13:59:30;;;;;;;3.40;3.00;;;;;;;;;;6215934;23;20409;-59
2023/08/26 14:01:57;;;;;;;3.83;2.20;;;;;;;;;;6215944;23;20405;-60
2023/08/26 14:04:24;;;;;;;3.57;3.27;;;;;;;;;;6215964;23;20444;-59
2023/08/26 14:06:51;;;;;;;3.40;3.10;;;;;;;;;;6215994;23;20484;-59
2023/08/26 14:09:18;;;;;;;3.70;3.30;;;;;;;;;;6215642;23;20553;-59
2023/08/26 14:11:45;;;;;;;7.10;3.77;;;;;;;;;;6215816;23;20405;-59
2023/08/26 14:14:13;;;;;;;3.33;3.13;;;;;;;;;;6215887;23;20436;-59
2023/08/26 14:16:40;;;;;;;3.07;2.87;;;;;;;;;;6215741;23;20409;-59
2023/08/26 14:19:08;;;;;;;4.20;3.07;;;;;;;;;;6216161;23;20405;-59
2023/08/26 14:21:35;;;;;;;2.90;2.70;;;;;;;;;;6215532;23;20932;-59
2023/08/26 14:24:03;;;;;;;3.40;3.10;;;;;;;;;;6215920;23;20452;-59
2023/08/26 14:26:30;;;;;;;4.07;3.40;;;;;;;;;;6215688;23;20409;-59
2023/08/26 14:28:57;;;;;;;4.13;3.30;;;;;;;;;;6215740;23;20488;-59
2023/08/26 14:31:25;;;;;;;3.73;3.53;;;;;;;;;;6215807;23;20436;-59
2023/08/26 14:33:52;;;;;;;3.33;3.13;;;;;;;;;;6215542;23;20429;-59
2023/08/26 14:36:19;;;;;;;4.13;2.97;;;;;;;;;;6217188;23;20497;-59
2023/08/26 14:38:46;;;;;;;2.83;2.63;;;;;;;;;;6217781;23;20492;-59
2023/08/26 14:41:13;;;;;;;5.00;2.87;;;;;;;;;;6217731;23;20412;-59
2023/08/26 14:43:42;;;;;;;3.40;3.20;;;;;;;;;;6217543;23;20809;-59
2023/08/26 14:46:09;;;;;;;3.00;2.80;;;;;;;;;;6217502;23;20405;-59